sensor_id;sensor_type;location;lat;lon;timestamp;temperature;humidity
39067;DHT22;24821;51.988;6.020;2023-03-12T00:00:33;2.50;99.90
39067;DHT22;24821;51.988;6.020;2023-03-12T00:02:59;2.50;99.90
39067;DHT22;24821;51.988;6.020;2023-03-12T00:05:24;2.50;99.90
39067;DHT22;24821;51.988;6.020;2023-03-12T00:07:51;2.50;99.90
39067;DHT22;24821;51.988;6.020;2023-03-12T00:10:17;2.50;99.90
39067;DHT22;24821;51.988;6.020;2023-03-12T00:12:43;2.50;99.90
39067;DHT22;24821;51.988;6.020;2023-03-12T00:15:09;2.50;99.90
39067;DHT22;24821;51.988;6.020;2023-03-12T00:17:34;2.60;99.90
39067;DHT22;24821;51.988;6.020;2023-03-12T00:20:00;2.50;99.90
39067;DHT22;24821;51.988;6.020;2023-03-12T00:22:26;2.50;99.90
39067;DHT22;24821;51.988;6.020;2023-03-12T00:24:53;2.50;99.90
39067;DHT22;24821;51.988;6.020;2023-03-12T00:27:20;2.60;99.90
39067;DHT22;24821;51.988;6.020;2023-03-12T00:29:46;2.60;99.90
39067;DHT22;24821;51.988;6.020;2023-03-12T00:32:11;2.60;99.90
39067;DHT22;24821;51.988;6.020;2023-03-12T00:34:37;2.60;99.90
39067;DHT22;24821;51.988;6.020;2023-03-12T00:37:02;2.60;99.90
39067;DHT22;24821;51.988;6.020;2023-03-12T00:39:28;2.60;99.90
39067;DHT22;24821;51.988;6.020;2023-03-12T00:41:53;2.60;99.90
39067;DHT22;24821;51.988;6.020;2023-03-12T00:44:19;2.60;99.90
39067;DHT22;24821;51.988;6.020;2023-03-12T00:46:44;2.60;99.90
39067;DHT22;24821;51.988;6.020;2023-03-12T00:49:10;2.70;99.90
39067;DHT22;24821;51.988;6.020;2023-03-12T00:51:36;2.70;99.90
39067;DHT22;24821;51.988;6.020;2023-03-12T00:54:02;2.70;99.90
39067;DHT22;24821;51.988;6.020;2023-03-12T00:56:27;2.70;99.90
39067;DHT22;24821;51.988;6.020;2023-03-12T00:58:53;2.70;99.90
39067;DHT22;24821;51.988;6.020;2023-03-12T01:01:19;2.70;99.90
39067;DHT22;24821;51.988;6.020;2023-03-12T01:03:44;2.70;99.90
39067;DHT22;24821;51.988;6.020;2023-03-12T01:06:10;2.70;99.90
39067;DHT22;24821;51.988;6.020;2023-03-12T01:08:36;2.70;99.90
39067;DHT22;24821;51.988;6.020;2023-03-12T01:11:02;2.70;99.90
39067;DHT22;24821;51.988;6.020;2023-03-12T01:13:28;2.70;99.90
39067;DHT22;24821;51.988;6.020;2023-03-12T01:15:54;2.70;99.90
39067;DHT22;24821;51.988;6.020;2023-03-12T01:18:19;2.80;99.90
39067;DHT22;24821;51.988;6.020;2023-03-12T01:20:45;2.80;99.90
39067;DHT22;24821;51.988;6.020;2023-03-12T01:23:11;2.80;99.90
39067;DHT22;24821;51.988;6.020;2023-03-12T01:25:37;2.80;99.90
39067;DHT22;24821;51.988;6.020;2023-03-12T01:28:03;2.80;99.90
39067;DHT22;24821;51.988;6.020;2023-03-12T01:30:29;2.80;99.90
39067;DHT22;24821;51.988;6.020;2023-03-12T01:32:55;2.80;99.90
39067;DHT22;24821;51.988;6.020;2023-03-12T01:35:21;2.80;99.90
39067;DHT22;24821;51.988;6.020;2023-03-12T01:37:46;2.80;99.90
39067;DHT22;24821;51.988;6.020;2023-03-12T01:40:17;2.80;99.90
39067;DHT22;24821;51.988;6.020;2023-03-12T01:42:53;2.80;99.90
39067;DHT22;24821;51.988;6.020;2023-03-12T01:48:17;2.70;99.90
39067;DHT22;24821;51.988;6.020;2023-03-12T01:50:43;2.70;99.90
39067;DHT22;24821;51.988;6.020;2023-03-12T01:53:09;2.60;99.90
39067;DHT22;24821;51.988;6.020;2023-03-12T01:55:35;2.70;99.90
39067;DHT22;24821;51.988;6.020;2023-03-12T01:58:01;2.70;99.90
39067;DHT22;24821;51.988;6.020;2023-03-12T02:00:27;2.60;99.90
39067;DHT22;24821;51.988;6.020;2023-03-12T02:02:54;2.60;99.90
39067;DHT22;24821;51.988;6.020;2023-03-12T02:05:44;2.60;99.90
39067;DHT22;24821;51.988;6.020;2023-03-12T02:08:13;2.60;99.90
39067;DHT22;24821;51.988;6.020;2023-03-12T02:10:39;2.60;99.90
39067;DHT22;24821;51.988;6.020;2023-03-12T02:13:05;2.50;99.90
39067;DHT22;24821;51.988;6.020;2023-03-12T02:15:32;2.50;99.90
39067;DHT22;24821;51.988;6.020;2023-03-12T02:17:59;2.60;99.90
39067;DHT22;24821;51.988;6.020;2023-03-12T02:23:41;2.60;99.90
39067;DHT22;24821;51.988;6.020;2023-03-12T02:26:10;2.60;99.90
39067;DHT22;24821;51.988;6.020;2023-03-12T02:28:36;2.50;99.90
39067;DHT22;24821;51.988;6.020;2023-03-12T02:31:10;2.60;99.90
39067;DHT22;24821;51.988;6.020;2023-03-12T02:33:37;2.60;99.90
39067;DHT22;24821;51.988;6.020;2023-03-12T02:36:02;2.60;99.90
39067;DHT22;24821;51.988;6.020;2023-03-12T02:41:20;2.70;99.90
39067;DHT22;24821;51.988;6.020;2023-03-12T02:43:47;2.70;99.90
39067;DHT22;24821;51.988;6.020;2023-03-12T02:46:14;2.70;99.90
39067;DHT22;24821;51.988;6.020;2023-03-12T02:48:40;2.80;99.90
39067;DHT22;24821;51.988;6.020;2023-03-12T02:51:05;2.80;99.90
39067;DHT22;24821;51.988;6.020;2023-03-12T02:53:31;2.80;99.90
39067;DHT22;24821;51.988;6.020;2023-03-12T02:55:57;2.80;99.90
39067;DHT22;24821;51.988;6.020;2023-03-12T02:58:22;2.90;99.90
39067;DHT22;24821;51.988;6.020;2023-03-12T03:00:48;2.90;99.90
39067;DHT22;24821;51.988;6.020;2023-03-12T03:03:14;2.90;99.90
39067;DHT22;24821;51.988;6.020;2023-03-12T03:05:40;3.00;99.90
39067;DHT22;24821;51.988;6.020;2023-03-12T03:08:06;3.00;99.90
39067;DHT22;24821;51.988;6.020;2023-03-12T03:10:32;2.90;99.90
39067;DHT22;24821;51.988;6.020;2023-03-12T03:12:57;3.00;99.90
39067;DHT22;24821;51.988;6.020;2023-03-12T03:15:23;3.00;99.90
39067;DHT22;24821;51.988;6.020;2023-03-12T03:17:48;3.00;99.90
39067;DHT22;24821;51.988;6.020;2023-03-12T03:20:14;3.00;99.90
39067;DHT22;24821;51.988;6.020;2023-03-12T03:22:40;3.00;99.90
39067;DHT22;24821;51.988;6.020;2023-03-12T03:25:07;3.00;99.90
39067;DHT22;24821;51.988;6.020;2023-03-12T03:27:32;3.00;99.90
39067;DHT22;24821;51.988;6.020;2023-03-12T03:29:58;3.00;99.90
39067;DHT22;24821;51.988;6.020;2023-03-12T03:32:24;3.00;99.90
39067;DHT22;24821;51.988;6.020;2023-03-12T03:34:49;3.00;99.90
39067;DHT22;24821;51.988;6.020;2023-03-12T03:37:15;3.00;99.90
39067;DHT22;24821;51.988;6.020;2023-03-12T03:39:40;3.00;99.90
39067;DHT22;24821;51.988;6.020;2023-03-12T03:42:06;3.00;99.90
39067;DHT22;24821;51.988;6.020;2023-03-12T03:44:32;3.10;99.90
39067;DHT22;24821;51.988;6.020;2023-03-12T03:46:57;3.10;99.90
39067;DHT22;24821;51.988;6.020;2023-03-12T03:49:23;3.10;99.90
39067;DHT22;24821;51.988;6.020;2023-03-12T03:51:48;3.10;99.90
39067;DHT22;24821;51.988;6.020;2023-03-12T03:54:16;3.10;99.90
39067;DHT22;24821;51.988;6.020;2023-03-12T03:56:42;3.10;99.90
39067;DHT22;24821;51.988;6.020;2023-03-12T03:59:08;3.10;99.90
39067;DHT22;24821;51.988;6.020;2023-03-12T04:01:33;3.10;99.90
39067;DHT22;24821;51.988;6.020;2023-03-12T04:03:59;3.10;99.90
39067;DHT22;24821;51.988;6.020;2023-03-12T04:06:25;3.10;99.90
39067;DHT22;24821;51.988;6.020;2023-03-12T04:08:50;3.10;99.90
39067;DHT22;24821;51.988;6.020;2023-03-12T04:11:19;3.10;99.90
39067;DHT22;24821;51.988;6.020;2023-03-12T04:13:45;3.10;99.90
39067;DHT22;24821;51.988;6.020;2023-03-12T04:16:12;3.20;99.90
39067;DHT22;24821;51.988;6.020;2023-03-12T04:18:38;3.20;99.90
39067;DHT22;24821;51.988;6.020;2023-03-12T04:21:06;3.10;99.90
39067;DHT22;24821;51.988;6.020;2023-03-12T04:23:33;3.20;99.90
39067;DHT22;24821;51.988;6.020;2023-03-12T04:25:59;3.10;99.90
39067;DHT22;24821;51.988;6.020;2023-03-12T04:28:24;3.10;99.90
39067;DHT22;24821;51.988;6.020;2023-03-12T04:30:58;3.10;99.90
39067;DHT22;24821;51.988;6.020;2023-03-12T04:33:28;3.10;99.90
39067;DHT22;24821;51.988;6.020;2023-03-12T04:35:54;3.10;99.90
39067;DHT22;24821;51.988;6.020;2023-03-12T04:38:20;3.10;99.90
39067;DHT22;24821;51.988;6.020;2023-03-12T04:40:47;3.10;99.90
39067;DHT22;24821;51.988;6.020;2023-03-12T04:43:12;3.20;99.90
39067;DHT22;24821;51.988;6.020;2023-03-12T04:45:38;3.20;99.90
39067;DHT22;24821;51.988;6.020;2023-03-12T04:48:04;3.20;99.90
39067;DHT22;24821;51.988;6.020;2023-03-12T04:50:30;3.20;99.90
39067;DHT22;24821;51.988;6.020;2023-03-12T04:52:56;3.20;99.90
39067;DHT22;24821;51.988;6.020;2023-03-12T04:55:21;3.20;99.90
39067;DHT22;24821;51.988;6.020;2023-03-12T04:57:47;3.20;99.90
39067;DHT22;24821;51.988;6.020;2023-03-12T05:00:13;3.20;99.90
39067;DHT22;24821;51.988;6.020;2023-03-12T05:02:39;3.20;99.90
39067;DHT22;24821;51.988;6.020;2023-03-12T05:05:06;3.30;99.90
39067;DHT22;24821;51.988;6.020;2023-03-12T05:07:32;3.30;99.90
39067;DHT22;24821;51.988;6.020;2023-03-12T05:09:58;3.30;99.90
39067;DHT22;24821;51.988;6.020;2023-03-12T05:12:24;3.40;99.90
39067;DHT22;24821;51.988;6.020;2023-03-12T05:14:49;3.40;99.90
39067;DHT22;24821;51.988;6.020;2023-03-12T05:17:15;3.40;99.90
39067;DHT22;24821;51.988;6.020;2023-03-12T05:19:40;3.40;99.90
39067;DHT22;24821;51.988;6.020;2023-03-12T05:22:06;3.40;99.90
39067;DHT22;24821;51.988;6.020;2023-03-12T05:24:31;3.50;99.90
39067;DHT22;24821;51.988;6.020;2023-03-12T05:26:57;3.50;99.90
39067;DHT22;24821;51.988;6.020;2023-03-12T05:29:23;3.50;99.90
39067;DHT22;24821;51.988;6.020;2023-03-12T05:31:48;3.50;99.90
39067;DHT22;24821;51.988;6.020;2023-03-12T05:34:14;3.60;99.90
39067;DHT22;24821;51.988;6.020;2023-03-12T05:36:40;3.60;99.90
39067;DHT22;24821;51.988;6.020;2023-03-12T05:39:06;3.60;99.90
39067;DHT22;24821;51.988;6.020;2023-03-12T05:41:32;3.60;99.90
39067;DHT22;24821;51.988;6.020;2023-03-12T05:43:57;3.50;99.90
39067;DHT22;24821;51.988;6.020;2023-03-12T05:46:24;3.50;99.90
39067;DHT22;24821;51.988;6.020;2023-03-12T05:48:51;3.50;99.90
39067;DHT22;24821;51.988;6.020;2023-03-12T05:51:17;3.60;99.90
39067;DHT22;24821;51.988;6.020;2023-03-12T05:53:43;3.60;99.90
39067;DHT22;24821;51.988;6.020;2023-03-12T05:56:11;3.60;99.90
39067;DHT22;24821;51.988;6.020;2023-03-12T05:58:38;3.60;99.90
39067;DHT22;24821;51.988;6.020;2023-03-12T06:01:14;3.60;99.90
39067;DHT22;24821;51.988;6.020;2023-03-12T06:03:40;3.50;99.90
39067;DHT22;24821;51.988;6.020;2023-03-12T06:06:07;3.50;99.90
39067;DHT22;24821;51.988;6.020;2023-03-12T06:08:33;3.50;99.90
39067;DHT22;24821;51.988;6.020;2023-03-12T06:10:59;3.50;99.90
39067;DHT22;24821;51.988;6.020;2023-03-12T06:13:24;3.50;99.90
39067;DHT22;24821;51.988;6.020;2023-03-12T06:15:51;3.50;99.90
39067;DHT22;24821;51.988;6.020;2023-03-12T06:18:17;3.50;99.90
39067;DHT22;24821;51.988;6.020;2023-03-12T06:20:42;3.50;99.90
39067;DHT22;24821;51.988;6.020;2023-03-12T06:23:08;3.50;99.90
39067;DHT22;24821;51.988;6.020;2023-03-12T06:25:33;3.50;99.90
39067;DHT22;24821;51.988;6.020;2023-03-12T06:27:59;3.50;99.90
39067;DHT22;24821;51.988;6.020;2023-03-12T06:30:25;3.60;99.90
39067;DHT22;24821;51.988;6.020;2023-03-12T06:32:52;3.60;99.90
39067;DHT22;24821;51.988;6.020;2023-03-12T06:35:19;3.60;99.90
39067;DHT22;24821;51.988;6.020;2023-03-12T06:37:44;3.60;99.90
39067;DHT22;24821;51.988;6.020;2023-03-12T06:40:10;3.60;99.90
39067;DHT22;24821;51.988;6.020;2023-03-12T06:42:38;3.60;99.90
39067;DHT22;24821;51.988;6.020;2023-03-12T06:45:04;3.60;99.90
39067;DHT22;24821;51.988;6.020;2023-03-12T06:47:30;3.60;99.90
39067;DHT22;24821;51.988;6.020;2023-03-12T06:49:56;3.60;99.90
39067;DHT22;24821;51.988;6.020;2023-03-12T06:52:21;3.50;99.90
39067;DHT22;24821;51.988;6.020;2023-03-12T06:54:47;3.50;99.90
39067;DHT22;24821;51.988;6.020;2023-03-12T06:57:12;3.50;99.90
39067;DHT22;24821;51.988;6.020;2023-03-12T06:59:41;3.60;99.90
39067;DHT22;24821;51.988;6.020;2023-03-12T07:02:09;3.60;99.90
39067;DHT22;24821;51.988;6.020;2023-03-12T07:04:35;3.60;99.90
39067;DHT22;24821;51.988;6.020;2023-03-12T07:07:01;3.60;99.90
39067;DHT22;24821;51.988;6.020;2023-03-12T07:09:26;3.60;99.90
39067;DHT22;24821;51.988;6.020;2023-03-12T07:11:52;3.60;99.90
39067;DHT22;24821;51.988;6.020;2023-03-12T07:14:17;3.60;99.90
39067;DHT22;24821;51.988;6.020;2023-03-12T07:16:44;3.60;99.90
39067;DHT22;24821;51.988;6.020;2023-03-12T07:19:10;3.70;99.90
39067;DHT22;24821;51.988;6.020;2023-03-12T07:21:35;3.80;99.90
39067;DHT22;24821;51.988;6.020;2023-03-12T07:24:01;3.80;99.90
39067;DHT22;24821;51.988;6.020;2023-03-12T07:26:31;3.80;99.90
39067;DHT22;24821;51.988;6.020;2023-03-12T07:28:57;3.90;99.90
39067;DHT22;24821;51.988;6.020;2023-03-12T07:31:22;3.90;99.90
39067;DHT22;24821;51.988;6.020;2023-03-12T07:33:48;4.00;99.90
39067;DHT22;24821;51.988;6.020;2023-03-12T07:36:14;4.10;99.90
39067;DHT22;24821;51.988;6.020;2023-03-12T07:38:39;4.10;99.90
39067;DHT22;24821;51.988;6.020;2023-03-12T07:41:05;4.10;99.90
39067;DHT22;24821;51.988;6.020;2023-03-12T07:43:30;4.10;99.90
39067;DHT22;24821;51.988;6.020;2023-03-12T07:45:56;4.10;99.90
39067;DHT22;24821;51.988;6.020;2023-03-12T07:48:22;4.20;99.90
39067;DHT22;24821;51.988;6.020;2023-03-12T07:50:48;4.20;99.90
39067;DHT22;24821;51.988;6.020;2023-03-12T07:53:13;4.20;99.90
39067;DHT22;24821;51.988;6.020;2023-03-12T07:55:39;4.20;99.90
39067;DHT22;24821;51.988;6.020;2023-03-12T07:58:04;4.20;99.90
39067;DHT22;24821;51.988;6.020;2023-03-12T08:00:30;4.20;99.90
39067;DHT22;24821;51.988;6.020;2023-03-12T08:02:56;4.20;99.90
39067;DHT22;24821;51.988;6.020;2023-03-12T08:05:22;4.20;99.90
39067;DHT22;24821;51.988;6.020;2023-03-12T08:07:52;4.20;99.90
39067;DHT22;24821;51.988;6.020;2023-03-12T08:10:19;4.20;99.90
39067;DHT22;24821;51.988;6.020;2023-03-12T08:12:45;4.20;99.90
39067;DHT22;24821;51.988;6.020;2023-03-12T08:15:11;4.20;99.90
39067;DHT22;24821;51.988;6.020;2023-03-12T08:17:38;4.20;99.90
39067;DHT22;24821;51.988;6.020;2023-03-12T08:20:04;4.30;99.90
39067;DHT22;24821;51.988;6.020;2023-03-12T08:22:33;4.30;99.90
39067;DHT22;24821;51.988;6.020;2023-03-12T08:24:59;4.30;99.90
39067;DHT22;24821;51.988;6.020;2023-03-12T08:27:24;4.30;99.90
39067;DHT22;24821;51.988;6.020;2023-03-12T08:29:50;4.20;99.90
39067;DHT22;24821;51.988;6.020;2023-03-12T08:32:15;4.20;99.90
39067;DHT22;24821;51.988;6.020;2023-03-12T08:34:41;4.20;99.90
39067;DHT22;24821;51.988;6.020;2023-03-12T08:37:07;4.20;99.90
39067;DHT22;24821;51.988;6.020;2023-03-12T08:39:33;4.30;99.90
39067;DHT22;24821;51.988;6.020;2023-03-12T08:41:58;4.30;99.90
39067;DHT22;24821;51.988;6.020;2023-03-12T08:44:24;4.40;99.90
39067;DHT22;24821;51.988;6.020;2023-03-12T08:46:51;4.30;99.90
39067;DHT22;24821;51.988;6.020;2023-03-12T08:49:17;4.40;99.90
39067;DHT22;24821;51.988;6.020;2023-03-12T08:51:43;4.40;99.90
39067;DHT22;24821;51.988;6.020;2023-03-12T08:54:08;4.50;99.90
39067;DHT22;24821;51.988;6.020;2023-03-12T08:56:34;4.50;99.90
39067;DHT22;24821;51.988;6.020;2023-03-12T08:59:10;4.50;99.90
39067;DHT22;24821;51.988;6.020;2023-03-12T09:01:36;4.50;99.90
39067;DHT22;24821;51.988;6.020;2023-03-12T09:04:02;4.60;99.90
39067;DHT22;24821;51.988;6.020;2023-03-12T09:06:28;4.60;99.90
39067;DHT22;24821;51.988;6.020;2023-03-12T09:08:54;4.70;99.90
39067;DHT22;24821;51.988;6.020;2023-03-12T09:11:19;4.70;99.90
39067;DHT22;24821;51.988;6.020;2023-03-12T09:13:45;4.70;99.90
39067;DHT22;24821;51.988;6.020;2023-03-12T09:16:10;4.80;99.90
39067;DHT22;24821;51.988;6.020;2023-03-12T09:18:36;4.80;99.90
39067;DHT22;24821;51.988;6.020;2023-03-12T09:21:02;4.80;99.90
39067;DHT22;24821;51.988;6.020;2023-03-12T09:23:28;4.90;99.90
39067;DHT22;24821;51.988;6.020;2023-03-12T09:25:54;4.90;99.90
39067;DHT22;24821;51.988;6.020;2023-03-12T09:28:19;4.90;99.90
39067;DHT22;24821;51.988;6.020;2023-03-12T09:30:45;5.00;99.90
39067;DHT22;24821;51.988;6.020;2023-03-12T09:33:11;5.10;99.90
39067;DHT22;24821;51.988;6.020;2023-03-12T09:35:39;5.10;99.90
39067;DHT22;24821;51.988;6.020;2023-03-12T09:38:05;5.20;99.90
39067;DHT22;24821;51.988;6.020;2023-03-12T09:40:33;5.20;99.90
39067;DHT22;24821;51.988;6.020;2023-03-12T09:43:04;5.30;99.90
39067;DHT22;24821;51.988;6.020;2023-03-12T09:45:36;5.30;99.90
39067;DHT22;24821;51.988;6.020;2023-03-12T09:48:04;5.40;99.90
39067;DHT22;24821;51.988;6.020;2023-03-12T09:50:36;5.40;99.90
39067;DHT22;24821;51.988;6.020;2023-03-12T09:53:13;5.50;99.90
39067;DHT22;24821;51.988;6.020;2023-03-12T09:55:45;5.60;99.90
39067;DHT22;24821;51.988;6.020;2023-03-12T09:58:28;5.70;99.90
39067;DHT22;24821;51.988;6.020;2023-03-12T10:00:59;5.80;99.90
39067;DHT22;24821;51.988;6.020;2023-03-12T10:06:15;6.00;99.90
39067;DHT22;24821;51.988;6.020;2023-03-12T10:09:06;6.20;99.90
39067;DHT22;24821;51.988;6.020;2023-03-12T10:17:44;6.30;99.90
39067;DHT22;24821;51.988;6.020;2023-03-12T10:23:05;6.40;99.90
39067;DHT22;24821;51.988;6.020;2023-03-12T10:29:17;6.60;99.90
39067;DHT22;24821;51.988;6.020;2023-03-12T10:34:18;6.80;99.90
39067;DHT22;24821;51.988;6.020;2023-03-12T10:36:45;6.90;99.90
39067;DHT22;24821;51.988;6.020;2023-03-12T10:39:17;6.90;99.90
39067;DHT22;24821;51.988;6.020;2023-03-12T10:41:44;7.00;99.90
39067;DHT22;24821;51.988;6.020;2023-03-12T10:44:17;7.00;99.90
39067;DHT22;24821;51.988;6.020;2023-03-12T10:46:48;7.10;99.90
39067;DHT22;24821;51.988;6.020;2023-03-12T10:49:27;7.10;99.90
39067;DHT22;24821;51.988;6.020;2023-03-12T10:52:15;7.20;99.90
39067;DHT22;24821;51.988;6.020;2023-03-12T10:54:43;7.30;99.90
39067;DHT22;24821;51.988;6.020;2023-03-12T10:57:10;7.40;99.90
39067;DHT22;24821;51.988;6.020;2023-03-12T10:59:38;7.50;99.90
39067;DHT22;24821;51.988;6.020;2023-03-12T11:04:57;7.60;99.90
39067;DHT22;24821;51.988;6.020;2023-03-12T11:07:32;7.70;99.90
39067;DHT22;24821;51.988;6.020;2023-03-12T11:12:34;7.90;99.90
39067;DHT22;24821;51.988;6.020;2023-03-12T11:17:44;8.00;99.90
39067;DHT22;24821;51.988;6.020;2023-03-12T11:20:24;8.00;99.90
39067;DHT22;24821;51.988;6.020;2023-03-12T11:22:49;8.10;99.90
39067;DHT22;24821;51.988;6.020;2023-03-12T11:25:27;8.20;99.90
39067;DHT22;24821;51.988;6.020;2023-03-12T11:27:55;8.30;99.90
39067;DHT22;24821;51.988;6.020;2023-03-12T11:30:36;8.40;99.90
39067;DHT22;24821;51.988;6.020;2023-03-12T11:33:03;8.50;99.90
39067;DHT22;24821;51.988;6.020;2023-03-12T11:35:48;8.50;99.90
39067;DHT22;24821;51.988;6.020;2023-03-12T11:38:20;8.70;99.90
39067;DHT22;24821;51.988;6.020;2023-03-12T11:41:06;8.70;99.90
39067;DHT22;24821;51.988;6.020;2023-03-12T11:46:35;8.90;99.90
39067;DHT22;24821;51.988;6.020;2023-03-12T11:49:29;8.90;99.90
39067;DHT22;24821;51.988;6.020;2023-03-12T12:00:51;9.20;99.90
39067;DHT22;24821;51.988;6.020;2023-03-12T12:08:59;9.40;99.90
39067;DHT22;24821;51.988;6.020;2023-03-12T12:11:49;9.50;99.90
39067;DHT22;24821;51.988;6.020;2023-03-12T12:19:58;9.60;99.90
39067;DHT22;24821;51.988;6.020;2023-03-12T12:31:09;10.00;99.90
39067;DHT22;24821;51.988;6.020;2023-03-12T12:36:47;10.20;99.90
39067;DHT22;24821;51.988;6.020;2023-03-12T12:39:34;10.20;99.90
39067;DHT22;24821;51.988;6.020;2023-03-12T12:42:09;10.40;99.90
39067;DHT22;24821;51.988;6.020;2023-03-12T12:44:51;10.40;99.90
39067;DHT22;24821;51.988;6.020;2023-03-12T12:47:57;10.40;99.90
39067;DHT22;24821;51.988;6.020;2023-03-12T12:50:28;10.40;99.90
39067;DHT22;24821;51.988;6.020;2023-03-12T12:53:02;10.40;99.90
39067;DHT22;24821;51.988;6.020;2023-03-12T12:55:35;10.40;99.90
39067;DHT22;24821;51.988;6.020;2023-03-12T12:58:09;10.40;99.90
39067;DHT22;24821;51.988;6.020;2023-03-12T13:00:57;10.40;99.90
39067;DHT22;24821;51.988;6.020;2023-03-12T13:03:25;10.40;99.90
39067;DHT22;24821;51.988;6.020;2023-03-12T13:08:57;10.50;99.90
39067;DHT22;24821;51.988;6.020;2023-03-12T13:11:28;10.60;99.90
39067;DHT22;24821;51.988;6.020;2023-03-12T13:16:35;10.60;99.90
39067;DHT22;24821;51.988;6.020;2023-03-12T13:19:24;10.50;99.90
39067;DHT22;24821;51.988;6.020;2023-03-12T13:24:41;10.60;99.90
39067;DHT22;24821;51.988;6.020;2023-03-12T13:27:22;10.60;99.90
39067;DHT22;24821;51.988;6.020;2023-03-12T13:29:48;10.70;99.90
39067;DHT22;24821;51.988;6.020;2023-03-12T13:43:14;10.90;99.90
39067;DHT22;24821;51.988;6.020;2023-03-12T13:48:15;11.00;99.90
39067;DHT22;24821;51.988;6.020;2023-03-12T13:50:53;11.00;99.90
39067;DHT22;24821;51.988;6.020;2023-03-12T13:53:32;11.00;99.90
39067;DHT22;24821;51.988;6.020;2023-03-12T13:56:02;11.00;99.90
39067;DHT22;24821;51.988;6.020;2023-03-12T13:58:28;11.00;99.90
39067;DHT22;24821;51.988;6.020;2023-03-12T14:01:03;11.10;99.90
39067;DHT22;24821;51.988;6.020;2023-03-12T14:03:46;11.20;99.90
39067;DHT22;24821;51.988;6.020;2023-03-12T14:06:17;11.20;99.90
39067;DHT22;24821;51.988;6.020;2023-03-12T14:15:12;11.30;99.90
39067;DHT22;24821;51.988;6.020;2023-03-12T14:17:39;11.40;99.90
39067;DHT22;24821;51.988;6.020;2023-03-12T14:20:20;11.60;99.90
39067;DHT22;24821;51.988;6.020;2023-03-12T14:22:54;11.70;99.90
39067;DHT22;24821;51.988;6.020;2023-03-12T14:25:37;11.80;99.90
39067;DHT22;24821;51.988;6.020;2023-03-12T14:28:11;11.80;99.90
39067;DHT22;24821;51.988;6.020;2023-03-12T14:33:14;11.80;99.90
39067;DHT22;24821;51.988;6.020;2023-03-12T14:35:48;11.80;99.90
39067;DHT22;24821;51.988;6.020;2023-03-12T14:38:15;11.90;99.90
39067;DHT22;24821;51.988;6.020;2023-03-12T14:40:47;11.90;99.90
39067;DHT22;24821;51.988;6.020;2023-03-12T14:43:32;11.90;99.90
39067;DHT22;24821;51.988;6.020;2023-03-12T14:46:01;11.90;99.90
39067;DHT22;24821;51.988;6.020;2023-03-12T14:48:36;11.90;99.90
39067;DHT22;24821;51.988;6.020;2023-03-12T14:51:03;11.90;99.90
39067;DHT22;24821;51.988;6.020;2023-03-12T14:53:34;11.80;99.90
39067;DHT22;24821;51.988;6.020;2023-03-12T14:56:04;11.70;99.90
39067;DHT22;24821;51.988;6.020;2023-03-12T14:58:32;11.70;99.90
39067;DHT22;24821;51.988;6.020;2023-03-12T15:01:01;11.70;99.90
39067;DHT22;24821;51.988;6.020;2023-03-12T15:03:28;11.70;99.90
39067;DHT22;24821;51.988;6.020;2023-03-12T15:05:54;11.60;99.90
39067;DHT22;24821;51.988;6.020;2023-03-12T15:08:20;11.70;99.90
39067;DHT22;24821;51.988;6.020;2023-03-12T15:10:56;11.60;99.90
39067;DHT22;24821;51.988;6.020;2023-03-12T15:13:23;11.70;99.90
39067;DHT22;24821;51.988;6.020;2023-03-12T15:15:53;11.70;99.90
39067;DHT22;24821;51.988;6.020;2023-03-12T15:18:26;11.70;99.90
39067;DHT22;24821;51.988;6.020;2023-03-12T15:20:54;11.70;99.90
39067;DHT22;24821;51.988;6.020;2023-03-12T15:23:22;11.70;99.90
39067;DHT22;24821;51.988;6.020;2023-03-12T15:26:00;11.60;99.90
39067;DHT22;24821;51.988;6.020;2023-03-12T15:28:32;11.60;99.90
39067;DHT22;24821;51.988;6.020;2023-03-12T15:31:10;11.60;99.90
39067;DHT22;24821;51.988;6.020;2023-03-12T15:33:37;11.70;99.90
39067;DHT22;24821;51.988;6.020;2023-03-12T15:36:24;11.70;99.90
39067;DHT22;24821;51.988;6.020;2023-03-12T15:38:53;11.70;99.90
39067;DHT22;24821;51.988;6.020;2023-03-12T15:41:35;11.70;99.90
39067;DHT22;24821;51.988;6.020;2023-03-12T15:44:04;11.70;99.90
39067;DHT22;24821;51.988;6.020;2023-03-12T15:46:30;11.80;99.90
39067;DHT22;24821;51.988;6.020;2023-03-12T15:48:58;11.80;99.90
39067;DHT22;24821;51.988;6.020;2023-03-12T15:51:31;11.80;99.90
39067;DHT22;24821;51.988;6.020;2023-03-12T15:56:42;11.70;99.90
39067;DHT22;24821;51.988;6.020;2023-03-12T16:01:45;11.70;99.90
39067;DHT22;24821;51.988;6.020;2023-03-12T16:04:12;11.70;99.90
39067;DHT22;24821;51.988;6.020;2023-03-12T16:06:37;11.60;99.90
39067;DHT22;24821;51.988;6.020;2023-03-12T16:09:04;11.60;99.90
39067;DHT22;24821;51.988;6.020;2023-03-12T16:11:32;11.60;99.90
39067;DHT22;24821;51.988;6.020;2023-03-12T16:14:24;11.50;99.90
39067;DHT22;24821;51.988;6.020;2023-03-12T16:16:51;11.50;99.90
39067;DHT22;24821;51.988;6.020;2023-03-12T16:19:19;11.50;99.90
39067;DHT22;24821;51.988;6.020;2023-03-12T16:21:46;11.40;99.90
39067;DHT22;24821;51.988;6.020;2023-03-12T16:24:12;11.40;99.90
39067;DHT22;24821;51.988;6.020;2023-03-12T16:26:52;11.40;99.90
39067;DHT22;24821;51.988;6.020;2023-03-12T16:29:19;11.40;99.90
39067;DHT22;24821;51.988;6.020;2023-03-12T16:31:51;11.30;99.90
39067;DHT22;24821;51.988;6.020;2023-03-12T16:34:18;11.30;99.90
39067;DHT22;24821;51.988;6.020;2023-03-12T16:36:44;11.30;99.90
39067;DHT22;24821;51.988;6.020;2023-03-12T16:39:09;11.20;99.90
39067;DHT22;24821;51.988;6.020;2023-03-12T16:41:35;11.20;99.90
39067;DHT22;24821;51.988;6.020;2023-03-12T16:44:01;11.20;99.90
39067;DHT22;24821;51.988;6.020;2023-03-12T16:46:30;11.20;99.90
39067;DHT22;24821;51.988;6.020;2023-03-12T16:48:57;11.20;99.90
39067;DHT22;24821;51.988;6.020;2023-03-12T16:51:23;11.10;99.90
39067;DHT22;24821;51.988;6.020;2023-03-12T16:53:49;11.20;99.90
39067;DHT22;24821;51.988;6.020;2023-03-12T16:56:21;11.10;99.90
39067;DHT22;24821;51.988;6.020;2023-03-12T16:58:47;11.00;99.90
39067;DHT22;24821;51.988;6.020;2023-03-12T17:01:20;11.00;99.90
39067;DHT22;24821;51.988;6.020;2023-03-12T17:03:47;11.00;99.90
39067;DHT22;24821;51.988;6.020;2023-03-12T17:06:24;11.00;99.90
39067;DHT22;24821;51.988;6.020;2023-03-12T17:08:51;11.00;99.90
39067;DHT22;24821;51.988;6.020;2023-03-12T17:11:18;10.90;99.90
39067;DHT22;24821;51.988;6.020;2023-03-12T17:13:47;10.90;99.90
39067;DHT22;24821;51.988;6.020;2023-03-12T17:16:14;10.90;99.90
39067;DHT22;24821;51.988;6.020;2023-03-12T17:18:40;10.90;99.90
39067;DHT22;24821;51.988;6.020;2023-03-12T17:21:06;10.80;99.90
39067;DHT22;24821;51.988;6.020;2023-03-12T17:23:34;10.80;99.90
39067;DHT22;24821;51.988;6.020;2023-03-12T17:25:59;10.80;99.90
39067;DHT22;24821;51.988;6.020;2023-03-12T17:28:25;10.80;99.90
39067;DHT22;24821;51.988;6.020;2023-03-12T17:30:51;10.80;99.90
39067;DHT22;24821;51.988;6.020;2023-03-12T17:33:17;10.80;99.90
39067;DHT22;24821;51.988;6.020;2023-03-12T17:35:44;10.80;99.90